createdAt,value
2019-03-24T00:01:40.428Z,95195.92
2019-03-24T00:04:01.945Z,95200.27
2019-03-24T00:06:31.818Z,95196.84
2019-03-24T00:09:01.766Z,95198.78
2019-03-24T00:11:31.677Z,95201.91
2019-03-24T00:14:01.537Z,95206.34
2019-03-24T00:16:31.458Z,95206.68
2019-03-24T00:19:01.364Z,95199.14
2019-03-24T00:21:31.246Z,95202.94
2019-03-24T00:24:01.159Z,95203.41
2019-03-24T00:26:31.030Z,95204.66
2019-03-24T00:29:00.988Z,95206.26
2019-03-24T00:31:30.868Z,95202.42
2019-03-24T00:34:00.770Z,95203.71
2019-03-24T00:36:30.758Z,95207.83
2019-03-24T00:39:00.662Z,95202.52
2019-03-24T00:41:30.599Z,95210.14
2019-03-24T00:44:00.511Z,95204.84
2019-03-24T00:46:30.412Z,95201.34
2019-03-24T00:49:00.337Z,95203.28
2019-03-24T00:51:30.270Z,95202.98
2019-03-24T00:54:00.167Z,95197.27
2019-03-24T00:56:30.070Z,95196.96
2019-03-24T00:58:59.986Z,95194.48
2019-03-24T01:01:29.909Z,95196.23
2019-03-24T01:03:59.827Z,95191.36
2019-03-24T01:06:29.738Z,95190.22
2019-03-24T01:08:59.632Z,95190.86
2019-03-24T01:11:29.592Z,95191.89
2019-03-24T01:13:59.518Z,95189.64
2019-03-24T01:16:29.403Z,95188.56
2019-03-24T01:18:59.361Z,95186.38
2019-03-24T01:21:29.465Z,95186.49
2019-03-24T01:23:59.382Z,95185.98
2019-03-24T01:26:29.310Z,95187.13
2019-03-24T01:28:59.219Z,95185.52
2019-03-24T01:31:29.088Z,95189.89
2019-03-24T01:33:58.976Z,95187.44
2019-03-24T01:36:28.906Z,95187.50
2019-03-24T01:38:58.819Z,95190.98
2019-03-24T01:41:28.713Z,95182.63
2019-03-24T01:43:58.604Z,95187.52
2019-03-24T01:46:28.499Z,95185.03
2019-03-24T01:48:58.405Z,95188.91
2019-03-24T01:51:28.307Z,95189.05
2019-03-24T01:53:58.212Z,95194.48
2019-03-24T01:56:28.127Z,95194.29
2019-03-24T01:58:58.007Z,95201.36
2019-03-24T02:01:27.919Z,95197.91
2019-03-24T02:03:57.839Z,95190.00
2019-03-24T02:09:01.078Z,95180.36
2019-03-24T02:11:30.980Z,95184.73
2019-03-24T02:14:00.913Z,95183.43
2019-03-24T02:16:30.819Z,95182.48
2019-03-24T02:19:00.711Z,95181.53
2019-03-24T02:21:31.854Z,95178.00
2019-03-24T02:24:01.780Z,95172.74
2019-03-24T02:26:31.709Z,95171.99
2019-03-24T02:29:01.620Z,95176.42
2019-03-24T02:31:31.513Z,95174.58
2019-03-24T02:34:01.453Z,95167.77
2019-03-24T02:36:31.330Z,95166.19
2019-03-24T02:39:01.229Z,95170.70
2019-03-24T02:41:31.181Z,95173.38
2019-03-24T02:44:01.059Z,95175.22
2019-03-24T02:46:30.971Z,95178.89
2019-03-24T02:49:00.844Z,95176.64
2019-03-24T02:51:30.793Z,95179.09
2019-03-24T02:54:00.682Z,95178.63
2019-03-24T02:56:30.615Z,95177.78
2019-03-24T02:59:00.508Z,95179.96
2019-03-24T03:01:30.396Z,95185.19
2019-03-24T03:04:00.352Z,95178.96
2019-03-24T03:06:30.235Z,95179.20
2019-03-24T03:09:00.207Z,95180.18
2019-03-24T03:11:30.103Z,95174.52
2019-03-24T03:14:00.021Z,95179.47
2019-03-24T03:16:38.514Z,95175.31
2019-03-24T03:19:01.588Z,95176.12
2019-03-24T03:21:31.520Z,95178.16
2019-03-24T03:24:01.497Z,95182.70
2019-03-24T03:26:31.399Z,95187.12
2019-03-24T03:29:01.282Z,95189.70
2019-03-24T03:31:31.171Z,95194.80
2019-03-24T03:34:01.086Z,95197.22
2019-03-24T03:36:30.969Z,95191.28
2019-03-24T03:39:00.902Z,95189.88
2019-03-24T03:41:30.819Z,95190.28
2019-03-24T03:44:00.756Z,95191.87
2019-03-24T03:46:30.661Z,95195.88
2019-03-24T03:49:00.613Z,95195.16
2019-03-24T03:51:30.510Z,95193.38
2019-03-24T03:54:00.402Z,95193.38
2019-03-24T03:56:30.339Z,95193.56
2019-03-24T03:59:00.258Z,95198.45
2019-03-24T04:01:30.136Z,95205.37
2019-03-24T04:04:00.072Z,95205.85
2019-03-24T04:06:29.957Z,95199.91
2019-03-24T04:08:59.918Z,95201.71
2019-03-24T04:11:29.799Z,95205.37
2019-03-24T04:13:59.685Z,95213.46
2019-03-24T04:16:29.604Z,95209.23
2019-03-24T04:18:59.508Z,95210.39
2019-03-24T04:21:29.437Z,95222.57
2019-03-24T04:23:59.357Z,95219.05
2019-03-24T04:26:29.247Z,95217.17
2019-03-24T04:28:59.157Z,95219.50
2019-03-24T04:31:29.066Z,95219.50
2019-03-24T04:33:58.955Z,95218.91
2019-03-24T04:36:28.912Z,95216.47
2019-03-24T04:38:58.838Z,95221.55
2019-03-24T04:41:28.736Z,95216.79
2019-03-24T04:43:58.633Z,95218.75
2019-03-24T04:46:28.541Z,95219.69
2019-03-24T04:48:58.444Z,95217.45
2019-03-24T04:51:28.360Z,95222.54
2019-03-24T04:53:58.270Z,95228.41
2019-03-24T04:56:28.176Z,95227.86
2019-03-24T04:58:58.114Z,95223.52
2019-03-24T05:01:28.088Z,95228.83
2019-03-24T05:03:57.982Z,95220.42
2019-03-24T05:06:28.087Z,95230.88
2019-03-24T05:08:58.122Z,95231.58
2019-03-24T05:11:27.986Z,95234.39
2019-03-24T05:13:57.871Z,95238.27
2019-03-24T05:16:27.761Z,95234.58
2019-03-24T05:18:57.684Z,95236.75
2019-03-24T05:21:27.573Z,95236.20
2019-03-24T05:23:57.464Z,95238.98
2019-03-24T05:26:27.386Z,95243.73
2019-03-24T05:28:57.299Z,95253.41
2019-03-24T05:31:27.216Z,95255.05
2019-03-24T05:33:57.125Z,95254.11
2019-03-24T05:36:27.083Z,95251.34
2019-03-24T05:38:56.980Z,95250.72
2019-03-24T05:41:26.902Z,95252.84
2019-03-24T05:43:56.804Z,95259.09
2019-03-24T05:46:26.692Z,95260.87
2019-03-24T05:48:56.643Z,95272.16
2019-03-24T05:51:26.550Z,95268.37
2019-03-24T05:53:56.471Z,95267.99
2019-03-24T05:56:26.368Z,95268.66
2019-03-24T05:58:57.542Z,95265.20
2019-03-24T06:01:27.447Z,95271.55
2019-03-24T06:03:57.438Z,95262.30
2019-03-24T06:06:27.366Z,95262.83
2019-03-24T06:08:57.280Z,95262.63
2019-03-24T06:11:27.246Z,95268.63
2019-03-24T06:13:57.134Z,95261.34
2019-03-24T06:16:27.041Z,95268.47
2019-03-24T06:18:56.951Z,95262.36
2019-03-24T06:21:26.864Z,95262.70
2019-03-24T06:23:56.784Z,95273.59
2019-03-24T06:26:26.734Z,95274.41
2019-03-24T06:28:56.660Z,95266.79
2019-03-24T06:31:26.639Z,95264.02
2019-03-24T06:33:56.606Z,95263.19
2019-03-24T06:36:26.593Z,95264.73
2019-03-24T06:38:56.506Z,95266.58
2019-03-24T06:41:26.382Z,95267.23
2019-03-24T06:43:56.288Z,95264.54
2019-03-24T06:46:26.206Z,95271.22
2019-03-24T06:48:56.199Z,95273.05
2019-03-24T06:51:26.159Z,95266.80
2019-03-24T06:53:56.096Z,95275.09
2019-03-24T06:56:25.983Z,95274.19
2019-03-24T06:58:55.856Z,95269.47
2019-03-24T07:01:25.798Z,95271.88
2019-03-24T07:03:55.687Z,95274.66
2019-03-24T07:06:25.586Z,95269.63
2019-03-24T07:08:57.888Z,95271.20
2019-03-24T07:11:27.780Z,95266.27
2019-03-24T07:13:57.655Z,95261.07
2019-03-24T07:16:27.526Z,95265.19
2019-03-24T07:18:57.434Z,95264.32
2019-03-24T07:21:27.354Z,95260.52
2019-03-24T07:23:57.296Z,95266.17
2019-03-24T07:26:27.256Z,95273.65
2019-03-24T07:28:57.166Z,95266.08
2019-03-24T07:31:27.054Z,95264.32
2019-03-24T07:33:56.923Z,95263.52
2019-03-24T07:36:26.850Z,95270.89
2019-03-24T07:38:56.812Z,95262.28
2019-03-24T07:41:26.735Z,95264.05
2019-03-24T07:43:56.686Z,95267.66
2019-03-24T07:46:26.664Z,95267.53
2019-03-24T07:48:56.597Z,95265.58
2019-03-24T07:51:26.495Z,95262.52
2019-03-24T07:53:56.455Z,95258.38
2019-03-24T07:56:26.396Z,95258.80
2019-03-24T07:58:56.391Z,95261.86
2019-03-24T08:01:26.267Z,95265.65
2019-03-24T08:03:56.143Z,95258.59
2019-03-24T08:06:26.064Z,95258.66
2019-03-24T08:08:55.966Z,95261.31
2019-03-24T08:11:25.896Z,95253.59
2019-03-24T08:13:55.816Z,95256.40
2019-03-24T08:16:25.765Z,95252.01
2019-03-24T08:18:55.719Z,95250.42
2019-03-24T08:21:25.657Z,95245.60
2019-03-24T08:23:55.574Z,95254.74
2019-03-24T08:26:25.472Z,95249.09
2019-03-24T08:28:55.408Z,95243.38
2019-03-24T08:31:25.348Z,95241.75
2019-03-24T08:33:55.229Z,95236.38
2019-03-24T08:36:25.114Z,95235.58
2019-03-24T08:38:55.019Z,95233.30
2019-03-24T08:41:25.160Z,95227.41
2019-03-24T08:43:55.087Z,95226.91
2019-03-24T08:46:25.014Z,95227.10
2019-03-24T08:48:54.931Z,95216.83
2019-03-24T08:51:24.823Z,95216.05
2019-03-24T08:53:54.741Z,95213.53
2019-03-24T08:56:24.686Z,95211.31
2019-03-24T08:58:54.641Z,95205.80
2019-03-24T09:01:24.668Z,95197.63
2019-03-24T09:03:54.634Z,95199.52
2019-03-24T09:06:24.568Z,95190.30
2019-03-24T09:08:54.534Z,95193.19
2019-03-24T09:11:31.324Z,95184.94
2019-03-24T09:13:56.133Z,95184.94
2019-03-24T09:16:26.035Z,95181.25
2019-03-24T09:18:55.951Z,95181.02
2019-03-24T09:21:25.870Z,95176.36
2019-03-24T09:23:55.773Z,95177.80
2019-03-24T09:26:25.711Z,95177.66
2019-03-24T09:28:55.623Z,95172.72
2019-03-24T09:31:25.604Z,95170.15
2019-03-24T09:33:55.497Z,95173.27
2019-03-24T09:36:25.415Z,95173.48
2019-03-24T09:38:55.350Z,95169.32
2019-03-24T09:41:25.265Z,95170.27
2019-03-24T09:43:55.175Z,95167.36
2019-03-24T09:46:25.068Z,95156.52
2019-03-24T09:49:02.644Z,95159.30
2019-03-24T09:51:26.612Z,95152.34
2019-03-24T09:53:56.547Z,95155.17
2019-03-24T09:56:26.485Z,95154.78
2019-03-24T09:58:56.465Z,95161.89
2019-03-24T10:01:26.385Z,95147.88
2019-03-24T10:03:56.279Z,95155.34
2019-03-24T10:06:26.165Z,95147.89
2019-03-24T10:08:56.064Z,95146.39
2019-03-24T10:11:25.998Z,95143.17
2019-03-24T10:13:55.880Z,95140.69
2019-03-24T10:16:25.795Z,95143.63
2019-03-24T10:18:55.682Z,95139.58
2019-03-24T10:21:25.584Z,95143.75
2019-03-24T10:23:55.499Z,95136.02
2019-03-24T10:26:25.403Z,95133.94
2019-03-24T10:28:55.325Z,95134.91
2019-03-24T10:31:25.206Z,95128.66
2019-03-24T10:33:55.127Z,95123.94
2019-03-24T10:36:25.039Z,95110.42
2019-03-24T10:38:55.293Z,95106.95
2019-03-24T10:41:25.174Z,95103.62
2019-03-24T10:43:55.064Z,95099.72
2019-03-24T10:46:24.961Z,95097.95
2019-03-24T10:48:54.855Z,95093.59
2019-03-24T10:51:24.784Z,95090.66
2019-03-24T10:53:54.701Z,95089.05
2019-03-24T10:56:24.613Z,95081.38
2019-03-24T10:58:54.496Z,95075.47
2019-03-24T11:01:24.412Z,95062.43
2019-03-24T11:03:54.324Z,95060.63
2019-03-24T11:06:24.256Z,95057.15
2019-03-24T11:08:54.173Z,95055.18
2019-03-24T11:11:24.069Z,95051.85
2019-03-24T11:13:53.931Z,95053.58
2019-03-24T11:16:23.820Z,95046.77
2019-03-24T11:18:53.734Z,95039.63
2019-03-24T11:21:23.650Z,95032.34
2019-03-24T11:23:53.590Z,95027.05
2019-03-24T11:26:23.551Z,95031.99
2019-03-24T11:28:53.465Z,95025.10
2019-03-24T11:31:23.367Z,95026.14
2019-03-24T11:33:53.242Z,95019.61
2019-03-24T11:36:23.161Z,95024.70
2019-03-24T11:38:53.071Z,95018.36
2019-03-24T11:41:23.006Z,95019.22
2019-03-24T11:43:52.883Z,95013.01
2019-03-24T11:46:22.768Z,95007.56
2019-03-24T11:48:52.681Z,95003.23
2019-03-24T11:51:22.626Z,95007.06
2019-03-24T11:53:52.544Z,94994.55
2019-03-24T11:56:22.447Z,94992.73
2019-03-24T11:58:52.504Z,94984.04
2019-03-24T12:01:22.345Z,94990.09
2019-03-24T12:03:52.301Z,94988.33
2019-03-24T12:06:22.247Z,94988.42
2019-03-24T12:08:52.146Z,94976.14
2019-03-24T12:11:22.108Z,94972.69
2019-03-24T12:13:52.071Z,94971.75
2019-03-24T12:16:21.962Z,94973.19
2019-03-24T12:18:51.868Z,94962.63
2019-03-24T12:21:21.802Z,94967.44
2019-03-24T12:23:51.721Z,94968.55
2019-03-24T12:26:21.628Z,94969.00
2019-03-24T12:28:51.538Z,94964.20
2019-03-24T12:31:21.424Z,94961.70
2019-03-24T12:33:51.313Z,94955.30
2019-03-24T12:36:21.249Z,94946.24
2019-03-24T12:38:51.163Z,94941.11
2019-03-24T12:41:21.108Z,94944.75
2019-03-24T12:43:51.015Z,94949.50
2019-03-24T12:46:20.912Z,94938.38
2019-03-24T12:48:50.819Z,94938.98
2019-03-24T12:51:20.798Z,94932.66
2019-03-24T12:53:50.742Z,94932.56
2019-03-24T12:56:20.590Z,94919.91
2019-03-24T12:58:50.564Z,94916.06
2019-03-24T13:01:20.480Z,94915.31
2019-03-24T13:03:50.417Z,94920.75
2019-03-24T13:06:20.331Z,94917.80
2019-03-24T13:08:50.271Z,94914.31
2019-03-24T13:11:20.179Z,94908.16
2019-03-24T13:13:50.095Z,94905.19
2019-03-24T13:16:19.985Z,94900.75
2019-03-24T13:18:49.887Z,94891.84
2019-03-24T13:21:19.780Z,94896.69
2019-03-24T13:23:49.697Z,94885.61
2019-03-24T13:26:19.620Z,94882.58
2019-03-24T13:28:49.524Z,94888.70
2019-03-24T13:31:19.441Z,94885.27
2019-03-24T13:33:49.347Z,94881.77
2019-03-24T13:36:19.306Z,94870.91
2019-03-24T13:38:49.244Z,94862.50
2019-03-24T13:41:19.164Z,94864.37
2019-03-24T13:43:49.047Z,94863.10
2019-03-24T13:46:19.043Z,94855.80
2019-03-24T13:48:49.075Z,94848.17
2019-03-24T13:51:18.972Z,94849.55
2019-03-24T13:53:48.866Z,94846.06
2019-03-24T13:56:18.775Z,94840.22
2019-03-24T13:58:48.718Z,94839.67
2019-03-24T14:01:18.722Z,94835.67
2019-03-24T14:03:48.738Z,94825.83
2019-03-24T14:06:18.638Z,94826.35
2019-03-24T14:08:48.519Z,94825.75
2019-03-24T14:11:18.432Z,94826.02
2019-03-24T14:13:48.310Z,94828.64
2019-03-24T14:16:18.240Z,94831.84
2019-03-24T14:18:48.146Z,94829.80
2019-03-24T14:21:18.032Z,94823.41
2019-03-24T14:23:47.956Z,94819.66
2019-03-24T14:26:17.893Z,94819.42
2019-03-24T14:28:47.801Z,94818.09
2019-03-24T14:31:17.706Z,94817.56
2019-03-24T14:33:47.635Z,94816.71
2019-03-24T14:36:17.569Z,94812.75
2019-03-24T14:38:47.470Z,94814.56
2019-03-24T14:41:17.393Z,94808.14
2019-03-24T14:43:47.270Z,94809.52
2019-03-24T14:46:17.207Z,94805.94
2019-03-24T14:48:47.119Z,94804.09
2019-03-24T14:51:17.087Z,94805.77
2019-03-24T14:53:47.013Z,94804.95
2019-03-24T14:56:16.958Z,94805.20
2019-03-24T14:58:46.921Z,94796.46
2019-03-24T15:01:16.829Z,94795.41
2019-03-24T15:03:46.729Z,94795.62
2019-03-24T15:06:16.657Z,94791.91
2019-03-24T15:08:46.551Z,94793.52
2019-03-24T15:11:16.482Z,94792.47
2019-03-24T15:13:46.340Z,94798.53
2019-03-24T15:16:16.233Z,94794.84
2019-03-24T15:18:46.116Z,94791.62
2019-03-24T15:21:16.056Z,94792.11
2019-03-24T15:23:45.968Z,94792.61
2019-03-24T15:26:15.888Z,94781.95
2019-03-24T15:28:45.776Z,94782.23
2019-03-24T15:31:15.739Z,94780.75
2019-03-24T15:33:45.676Z,94770.44
2019-03-24T15:36:15.667Z,94769.70
2019-03-24T15:38:45.606Z,94771.38
2019-03-24T15:41:15.560Z,94769.73
2019-03-24T15:43:45.496Z,94771.38
2019-03-24T15:46:15.425Z,94771.25
2019-03-24T15:48:45.372Z,94768.16
2019-03-24T15:51:17.073Z,94773.41
2019-03-24T15:53:46.920Z,94772.98
2019-03-24T15:56:16.846Z,94772.51
2019-03-24T15:58:46.813Z,94769.96
2019-03-24T16:01:19.642Z,94765.62
2019-03-24T16:03:49.716Z,94769.02
2019-03-24T16:06:19.703Z,94765.77
2019-03-24T16:08:49.681Z,94772.11
2019-03-24T16:11:19.639Z,94770.75
2019-03-24T16:13:49.533Z,94766.31
2019-03-24T16:16:19.483Z,94765.75
2019-03-24T16:18:49.438Z,94771.19
2019-03-24T16:21:27.392Z,94764.33
2019-03-24T16:23:50.980Z,94766.86
2019-03-24T16:26:20.910Z,94769.13
2019-03-24T16:28:50.859Z,94775.00
2019-03-24T16:31:20.755Z,94771.27
2019-03-24T16:33:50.683Z,94774.08
2019-03-24T16:36:20.747Z,94780.48
2019-03-24T16:38:50.683Z,94781.13
2019-03-24T16:41:20.621Z,94786.63
2019-03-24T16:43:50.560Z,94783.98
2019-03-24T16:46:20.691Z,94789.16
2019-03-24T16:48:50.613Z,94789.58
2019-03-24T16:51:20.520Z,94788.27
2019-03-24T16:53:50.391Z,94787.02
2019-03-24T16:56:22.307Z,94789.45
2019-03-24T16:58:52.267Z,94787.52
2019-03-24T17:01:22.266Z,94792.52
2019-03-24T17:03:52.176Z,94795.19
2019-03-24T17:06:22.078Z,94799.81
2019-03-24T17:08:52.007Z,94806.05
2019-03-24T17:11:21.925Z,94805.27
2019-03-24T17:13:51.868Z,94802.02
2019-03-24T17:16:21.785Z,94804.40
2019-03-24T17:18:51.699Z,94804.30
2019-03-24T17:21:21.619Z,94804.30
2019-03-24T17:23:51.485Z,94803.77
2019-03-24T17:26:21.405Z,94803.77
2019-03-24T17:28:51.478Z,94813.08
2019-03-24T17:31:21.433Z,94809.96
2019-03-24T17:33:51.444Z,94813.91
2019-03-24T17:36:21.411Z,94810.06
2019-03-24T17:38:51.323Z,94813.42
2019-03-24T17:41:21.216Z,94811.49
2019-03-24T17:43:51.144Z,94819.78
2019-03-24T17:46:21.075Z,94820.58
2019-03-24T17:48:51.006Z,94818.75
2019-03-24T17:51:20.935Z,94820.62
2019-03-24T17:53:50.853Z,94817.48
2019-03-24T17:56:20.781Z,94822.00
2019-03-24T17:58:52.946Z,94819.47
2019-03-24T18:01:22.868Z,94818.22
2019-03-24T18:03:52.800Z,94819.16
2019-03-24T18:06:22.775Z,94818.63
2019-03-24T18:08:52.694Z,94819.15
2019-03-24T18:11:22.624Z,94819.11
2019-03-24T18:13:52.548Z,94819.83
2019-03-24T18:16:22.886Z,94822.80
2019-03-24T18:18:52.871Z,94822.71
2019-03-24T18:21:22.785Z,94820.17
2019-03-24T18:23:52.723Z,94822.59
2019-03-24T18:26:22.689Z,94822.88
2019-03-24T18:28:52.617Z,94827.36
2019-03-24T18:31:22.569Z,94824.52
2019-03-24T18:33:52.515Z,94826.52
2019-03-24T18:36:22.473Z,94821.05
2019-03-24T18:38:52.816Z,94817.44
2019-03-24T18:41:22.739Z,94820.20
2019-03-24T18:43:52.664Z,94821.06
2019-03-24T18:46:22.617Z,94826.72
2019-03-24T18:48:52.882Z,94822.37
2019-03-24T18:51:22.798Z,94824.88
2019-03-24T18:53:52.748Z,94821.84
2019-03-24T18:56:22.712Z,94819.48
2019-03-24T18:58:52.621Z,94817.77
2019-03-24T19:01:22.523Z,94813.00
2019-03-24T19:03:52.453Z,94811.53
2019-03-24T19:06:22.407Z,94818.19
2019-03-24T19:08:52.321Z,94814.55
2019-03-24T19:11:22.272Z,94817.71
2019-03-24T19:13:52.184Z,94825.14
2019-03-24T19:16:23.002Z,94823.59
2019-03-24T19:18:52.959Z,94822.47
2019-03-24T19:21:22.917Z,94821.27
2019-03-24T19:23:52.892Z,94824.52
2019-03-24T19:26:25.193Z,94827.05
2019-03-24T19:28:55.085Z,94824.75
2019-03-24T19:31:25.238Z,94821.85
2019-03-24T19:33:56.190Z,94822.90
2019-03-24T19:36:26.155Z,94820.80
2019-03-24T19:38:56.598Z,94826.34
2019-03-24T19:41:26.560Z,94822.90
2019-03-24T19:43:56.539Z,94826.95
2019-03-24T19:46:26.481Z,94828.93
2019-03-24T19:48:56.440Z,94821.91
2019-03-24T19:51:26.399Z,94816.24
2019-03-24T19:53:56.344Z,94820.46
2019-03-24T19:56:26.288Z,94821.90
2019-03-24T19:58:56.223Z,94824.33
2019-03-24T20:01:26.163Z,94827.16
2019-03-24T20:03:56.153Z,94827.00
2019-03-24T20:06:26.166Z,94819.77
2019-03-24T20:08:56.089Z,94823.69
2019-03-24T20:11:26.139Z,94827.25
2019-03-24T20:13:56.484Z,94827.73
2019-03-24T20:16:26.646Z,94825.37
2019-03-24T20:18:56.597Z,94821.13
2019-03-24T20:21:26.517Z,94820.05
2019-03-24T20:23:56.412Z,94821.81
2019-03-24T20:26:26.432Z,94818.01
2019-03-24T20:28:56.364Z,94814.49
2019-03-24T20:31:26.253Z,94820.88
2019-03-24T20:33:56.178Z,94816.16
2019-03-24T20:36:26.126Z,94815.49
2019-03-24T20:38:56.307Z,94811.84
2019-03-24T20:41:26.218Z,94805.69
2019-03-24T20:43:56.137Z,94798.90
2019-03-24T20:46:26.062Z,94803.53
2019-03-24T20:48:56.012Z,94808.38
2019-03-24T20:51:25.927Z,94810.29
2019-03-24T20:53:55.843Z,94808.20
2019-03-24T20:56:25.801Z,94806.29
2019-03-24T20:58:55.762Z,94806.47
2019-03-24T21:01:25.707Z,94814.05
2019-03-24T21:03:55.699Z,94810.46
2019-03-24T21:06:25.623Z,94809.56
2019-03-24T21:08:55.566Z,94808.01
2019-03-24T21:11:25.506Z,94808.66
2019-03-24T21:13:55.436Z,94805.55
2019-03-24T21:16:25.658Z,94816.35
2019-03-24T21:18:55.631Z,94815.97
2019-03-24T21:21:25.590Z,94809.08
2019-03-24T21:23:55.568Z,94817.19
2019-03-24T21:26:25.528Z,94813.13
2019-03-24T21:28:55.458Z,94812.81
2019-03-24T21:31:25.430Z,94812.22
2019-03-24T21:33:55.368Z,94810.15
2019-03-24T21:36:25.293Z,94804.34
2019-03-24T21:38:55.223Z,94800.00
2019-03-24T21:41:25.175Z,94794.47
2019-03-24T21:43:55.137Z,94791.42
2019-03-24T21:46:25.118Z,94792.27
2019-03-24T21:48:57.582Z,94790.12
2019-03-24T21:51:26.645Z,94784.30
2019-03-24T21:53:56.546Z,94782.69
2019-03-24T21:56:26.493Z,94782.09
2019-03-24T21:58:56.439Z,94779.48
2019-03-24T22:01:26.335Z,94777.42
2019-03-24T22:03:56.246Z,94776.62
2019-03-24T22:06:26.163Z,94772.13
2019-03-24T22:08:56.052Z,94774.19
2019-03-24T22:11:25.937Z,94776.31
2019-03-24T22:13:56.142Z,94774.03
2019-03-24T22:16:26.049Z,94766.88
2019-03-24T22:18:55.962Z,94766.28
2019-03-24T22:21:25.867Z,94764.83
2019-03-24T22:23:55.763Z,94766.45
2019-03-24T22:26:25.689Z,94767.28
2019-03-24T22:28:55.614Z,94767.42
2019-03-24T22:31:25.597Z,94764.53
2019-03-24T22:33:55.515Z,94762.91
2019-03-24T22:36:25.415Z,94764.88
2019-03-24T22:38:55.348Z,94760.48
2019-03-24T22:41:25.272Z,94767.95
2019-03-24T22:43:55.189Z,94767.15
2019-03-24T22:46:25.120Z,94770.55
2019-03-24T22:48:55.068Z,94772.17
2019-03-24T22:51:24.979Z,94771.19
2019-03-24T22:54:03.008Z,94766.48
2019-03-24T22:56:26.520Z,94769.08
2019-03-24T22:58:56.455Z,94766.13
2019-03-24T23:01:26.351Z,94764.50
2019-03-24T23:03:56.286Z,94762.24
2019-03-24T23:06:26.181Z,94770.16
2019-03-24T23:08:56.079Z,94765.72
2019-03-24T23:11:26.020Z,94769.31
2019-03-24T23:13:55.962Z,94768.98
2019-03-24T23:16:25.899Z,94769.44
2019-03-24T23:18:55.875Z,94758.28
2019-03-24T23:21:25.786Z,94760.20
2019-03-24T23:23:55.693Z,94759.52
2019-03-24T23:26:25.604Z,94758.40
2019-03-24T23:28:55.504Z,94754.56
2019-03-24T23:31:25.429Z,94755.47
2019-03-24T23:33:55.361Z,94753.73
2019-03-24T23:36:25.303Z,94751.80
2019-03-24T23:38:57.233Z,94751.30
2019-03-24T23:41:26.930Z,94749.00
2019-03-24T23:43:56.818Z,94742.52
2019-03-24T23:46:26.887Z,94752.35
2019-03-24T23:48:56.886Z,94749.33
2019-03-24T23:51:26.791Z,94754.32
2019-03-24T23:53:56.790Z,94744.48
2019-03-24T23:56:26.705Z,94732.65
2019-03-24T23:58:56.605Z,94733.60
